sensor_id;sensor_type;location;lat;lon;timestamp;P1;durP1;ratioP1;P2;durP2;ratioP2
53389;SDS011;39288;42.970;1.524;2023-07-13T00:00:46;3.87;;;2.23;;
53389;SDS011;39288;42.970;1.524;2023-07-13T00:01:47;3.67;;;2.53;;
53389;SDS011;39288;42.970;1.524;2023-07-13T00:02:49;3.55;;;2.42;;
53389;SDS011;39288;42.970;1.524;2023-07-13T00:03:51;5.05;;;2.50;;
53389;SDS011;39288;42.970;1.524;2023-07-13T00:04:52;5.00;;;2.37;;
53389;SDS011;39288;42.970;1.524;2023-07-13T00:05:59;5.27;;;2.50;;
53389;SDS011;39288;42.970;1.524;2023-07-13T00:07:00;4.80;;;2.22;;
53389;SDS011;39288;42.970;1.524;2023-07-13T00:08:01;4.87;;;2.47;;
53389;SDS011;39288;42.970;1.524;2023-07-13T00:09:01;5.20;;;2.30;;
53389;SDS011;39288;42.970;1.524;2023-07-13T00:10:02;5.33;;;2.17;;
53389;SDS011;39288;42.970;1.524;2023-07-13T00:11:03;4.13;;;2.10;;
53389;SDS011;39288;42.970;1.524;2023-07-13T00:12:04;4.73;;;1.80;;
53389;SDS011;39288;42.970;1.524;2023-07-13T00:13:07;3.00;;;2.03;;
53389;SDS011;39288;42.970;1.524;2023-07-13T00:14:08;3.65;;;2.00;;
53389;SDS011;39288;42.970;1.524;2023-07-13T00:15:12;3.40;;;2.10;;
53389;SDS011;39288;42.970;1.524;2023-07-13T00:16:16;4.70;;;2.33;;
53389;SDS011;39288;42.970;1.524;2023-07-13T00:17:18;5.18;;;2.42;;
53389;SDS011;39288;42.970;1.524;2023-07-13T00:18:19;4.50;;;2.17;;
53389;SDS011;39288;42.970;1.524;2023-07-13T00:19:20;5.22;;;2.30;;
53389;SDS011;39288;42.970;1.524;2023-07-13T00:20:21;4.37;;;2.20;;
53389;SDS011;39288;42.970;1.524;2023-07-13T00:21:24;4.90;;;2.67;;
53389;SDS011;39288;42.970;1.524;2023-07-13T00:22:25;3.53;;;2.07;;
53389;SDS011;39288;42.970;1.524;2023-07-13T00:23:26;3.33;;;1.90;;
53389;SDS011;39288;42.970;1.524;2023-07-13T00:24:26;3.63;;;1.93;;
53389;SDS011;39288;42.970;1.524;2023-07-13T00:25:27;3.42;;;2.20;;
53389;SDS011;39288;42.970;1.524;2023-07-13T00:26:28;3.07;;;2.10;;
53389;SDS011;39288;42.970;1.524;2023-07-13T00:27:28;5.13;;;2.00;;
53389;SDS011;39288;42.970;1.524;2023-07-13T00:28:31;7.43;;;2.40;;
53389;SDS011;39288;42.970;1.524;2023-07-13T00:29:32;4.00;;;2.10;;
53389;SDS011;39288;42.970;1.524;2023-07-13T00:30:33;3.75;;;1.85;;
53389;SDS011;39288;42.970;1.524;2023-07-13T00:31:34;3.43;;;2.27;;
53389;SDS011;39288;42.970;1.524;2023-07-13T00:32:35;4.18;;;2.25;;
53389;SDS011;39288;42.970;1.524;2023-07-13T00:33:36;4.67;;;2.00;;
53389;SDS011;39288;42.970;1.524;2023-07-13T00:34:37;5.83;;;2.23;;
53389;SDS011;39288;42.970;1.524;2023-07-13T00:35:38;4.95;;;2.10;;
53389;SDS011;39288;42.970;1.524;2023-07-13T00:36:39;5.63;;;2.15;;
53389;SDS011;39288;42.970;1.524;2023-07-13T00:37:40;2.77;;;1.83;;
53389;SDS011;39288;42.970;1.524;2023-07-13T00:38:41;4.77;;;2.23;;
53389;SDS011;39288;42.970;1.524;2023-07-13T00:39:41;4.60;;;2.17;;
53389;SDS011;39288;42.970;1.524;2023-07-13T00:40:42;5.30;;;2.20;;
53389;SDS011;39288;42.970;1.524;2023-07-13T00:41:42;5.80;;;2.20;;
53389;SDS011;39288;42.970;1.524;2023-07-13T00:43:44;2.78;;;2.25;;
53389;SDS011;39288;42.970;1.524;2023-07-13T00:45:00;3.53;;;2.00;;
53389;SDS011;39288;42.970;1.524;2023-07-13T00:46:28;4.30;;;2.30;;
53389;SDS011;39288;42.970;1.524;2023-07-13T00:47:30;5.70;;;2.30;;
53389;SDS011;39288;42.970;1.524;2023-07-13T00:48:31;4.17;;;2.10;;
53389;SDS011;39288;42.970;1.524;2023-07-13T00:49:33;4.57;;;2.55;;
53389;SDS011;39288;42.970;1.524;2023-07-13T00:50:35;3.45;;;2.20;;
53389;SDS011;39288;42.970;1.524;2023-07-13T00:51:40;6.77;;;2.13;;
53389;SDS011;39288;42.970;1.524;2023-07-13T00:52:44;4.70;;;2.00;;
53389;SDS011;39288;42.970;1.524;2023-07-13T00:53:47;5.53;;;2.58;;
53389;SDS011;39288;42.970;1.524;2023-07-13T00:54:47;4.03;;;2.30;;
53389;SDS011;39288;42.970;1.524;2023-07-13T00:55:48;3.70;;;2.73;;
53389;SDS011;39288;42.970;1.524;2023-07-13T00:56:51;5.00;;;2.22;;
53389;SDS011;39288;42.970;1.524;2023-07-13T00:57:53;6.15;;;2.17;;
53389;SDS011;39288;42.970;1.524;2023-07-13T00:58:53;2.50;;;2.10;;
53389;SDS011;39288;42.970;1.524;2023-07-13T00:59:55;5.30;;;2.33;;
53389;SDS011;39288;42.970;1.524;2023-07-13T01:00:59;5.47;;;2.50;;
53389;SDS011;39288;42.970;1.524;2023-07-13T01:01:59;4.78;;;2.10;;
53389;SDS011;39288;42.970;1.524;2023-07-13T01:03:00;4.55;;;2.08;;
53389;SDS011;39288;42.970;1.524;2023-07-13T01:04:04;3.33;;;2.05;;
53389;SDS011;39288;42.970;1.524;2023-07-13T01:05:11;2.97;;;2.17;;
53389;SDS011;39288;42.970;1.524;2023-07-13T01:06:13;3.92;;;2.10;;
53389;SDS011;39288;42.970;1.524;2023-07-13T01:07:14;4.00;;;1.87;;
53389;SDS011;39288;42.970;1.524;2023-07-13T01:08:15;4.60;;;2.27;;
53389;SDS011;39288;42.970;1.524;2023-07-13T01:09:16;4.00;;;2.37;;
53389;SDS011;39288;42.970;1.524;2023-07-13T01:10:29;4.45;;;2.55;;
53389;SDS011;39288;42.970;1.524;2023-07-13T01:11:38;5.70;;;2.60;;
53389;SDS011;39288;42.970;1.524;2023-07-13T01:12:39;6.65;;;2.60;;
53389;SDS011;39288;42.970;1.524;2023-07-13T01:13:40;3.70;;;2.20;;
53389;SDS011;39288;42.970;1.524;2023-07-13T01:14:41;5.17;;;2.30;;
53389;SDS011;39288;42.970;1.524;2023-07-13T01:15:45;4.63;;;2.03;;
53389;SDS011;39288;42.970;1.524;2023-07-13T01:16:47;2.92;;;2.35;;
53389;SDS011;39288;42.970;1.524;2023-07-13T01:17:48;2.58;;;1.95;;
53389;SDS011;39288;42.970;1.524;2023-07-13T01:18:48;3.40;;;2.40;;
53389;SDS011;39288;42.970;1.524;2023-07-13T01:19:49;5.13;;;2.40;;
53389;SDS011;39288;42.970;1.524;2023-07-13T01:21:56;5.30;;;2.92;;
53389;SDS011;39288;42.970;1.524;2023-07-13T01:22:56;5.03;;;2.50;;
53389;SDS011;39288;42.970;1.524;2023-07-13T01:23:57;5.23;;;2.37;;
53389;SDS011;39288;42.970;1.524;2023-07-13T01:24:57;4.55;;;2.42;;
53389;SDS011;39288;42.970;1.524;2023-07-13T01:25:58;4.93;;;2.33;;
53389;SDS011;39288;42.970;1.524;2023-07-13T01:26:59;6.18;;;2.53;;
53389;SDS011;39288;42.970;1.524;2023-07-13T01:28:00;5.40;;;2.50;;
53389;SDS011;39288;42.970;1.524;2023-07-13T01:29:00;5.23;;;2.10;;
53389;SDS011;39288;42.970;1.524;2023-07-13T01:30:01;6.47;;;2.22;;
53389;SDS011;39288;42.970;1.524;2023-07-13T01:31:02;4.93;;;2.57;;
53389;SDS011;39288;42.970;1.524;2023-07-13T01:32:03;6.00;;;3.10;;
53389;SDS011;39288;42.970;1.524;2023-07-13T01:33:03;6.07;;;2.43;;
53389;SDS011;39288;42.970;1.524;2023-07-13T01:34:04;2.90;;;2.10;;
53389;SDS011;39288;42.970;1.524;2023-07-13T01:35:05;6.47;;;2.50;;
53389;SDS011;39288;42.970;1.524;2023-07-13T01:36:06;3.70;;;2.17;;
53389;SDS011;39288;42.970;1.524;2023-07-13T01:37:08;7.32;;;2.70;;
53389;SDS011;39288;42.970;1.524;2023-07-13T01:38:09;2.88;;;2.03;;
53389;SDS011;39288;42.970;1.524;2023-07-13T01:39:12;3.45;;;2.28;;
53389;SDS011;39288;42.970;1.524;2023-07-13T01:40:12;7.50;;;2.90;;
53389;SDS011;39288;42.970;1.524;2023-07-13T01:41:13;4.03;;;2.23;;
53389;SDS011;39288;42.970;1.524;2023-07-13T01:42:14;5.07;;;2.10;;
53389;SDS011;39288;42.970;1.524;2023-07-13T01:43:14;4.63;;;2.53;;
53389;SDS011;39288;42.970;1.524;2023-07-13T01:44:15;5.73;;;3.07;;
53389;SDS011;39288;42.970;1.524;2023-07-13T01:45:15;8.63;;;2.93;;
53389;SDS011;39288;42.970;1.524;2023-07-13T01:46:16;6.23;;;3.00;;
53389;SDS011;39288;42.970;1.524;2023-07-13T01:47:16;6.27;;;2.67;;
53389;SDS011;39288;42.970;1.524;2023-07-13T01:48:16;4.33;;;2.60;;
53389;SDS011;39288;42.970;1.524;2023-07-13T01:49:17;5.07;;;2.57;;
53389;SDS011;39288;42.970;1.524;2023-07-13T01:50:17;4.87;;;2.40;;
53389;SDS011;39288;42.970;1.524;2023-07-13T01:51:18;4.20;;;2.50;;
53389;SDS011;39288;42.970;1.524;2023-07-13T01:52:19;6.65;;;3.03;;
53389;SDS011;39288;42.970;1.524;2023-07-13T01:53:20;5.67;;;2.67;;
53389;SDS011;39288;42.970;1.524;2023-07-13T01:54:20;4.00;;;2.53;;
53389;SDS011;39288;42.970;1.524;2023-07-13T01:55:21;8.13;;;2.20;;
53389;SDS011;39288;42.970;1.524;2023-07-13T01:56:22;8.35;;;2.60;;
53389;SDS011;39288;42.970;1.524;2023-07-13T01:57:22;7.10;;;2.57;;
53389;SDS011;39288;42.970;1.524;2023-07-13T01:58:23;4.83;;;2.50;;
53389;SDS011;39288;42.970;1.524;2023-07-13T01:59:23;4.67;;;2.97;;
53389;SDS011;39288;42.970;1.524;2023-07-13T02:00:23;6.47;;;2.90;;
53389;SDS011;39288;42.970;1.524;2023-07-13T02:01:24;4.57;;;2.58;;
53389;SDS011;39288;42.970;1.524;2023-07-13T02:02:25;6.73;;;2.90;;
53389;SDS011;39288;42.970;1.524;2023-07-13T02:03:25;4.60;;;2.63;;
53389;SDS011;39288;42.970;1.524;2023-07-13T02:04:26;6.53;;;2.60;;
53389;SDS011;39288;42.970;1.524;2023-07-13T02:05:26;5.63;;;2.60;;
53389;SDS011;39288;42.970;1.524;2023-07-13T02:06:27;5.57;;;2.70;;
53389;SDS011;39288;42.970;1.524;2023-07-13T02:07:27;5.30;;;2.40;;
53389;SDS011;39288;42.970;1.524;2023-07-13T02:08:27;4.70;;;2.50;;
53389;SDS011;39288;42.970;1.524;2023-07-13T02:09:28;3.47;;;2.70;;
53389;SDS011;39288;42.970;1.524;2023-07-13T02:10:28;5.30;;;3.07;;
53389;SDS011;39288;42.970;1.524;2023-07-13T02:11:29;8.87;;;2.40;;
53389;SDS011;39288;42.970;1.524;2023-07-13T02:12:33;3.40;;;2.63;;
53389;SDS011;39288;42.970;1.524;2023-07-13T02:13:33;5.13;;;3.07;;
53389;SDS011;39288;42.970;1.524;2023-07-13T02:14:34;3.93;;;2.83;;
53389;SDS011;39288;42.970;1.524;2023-07-13T02:15:37;11.07;;;3.07;;
53389;SDS011;39288;42.970;1.524;2023-07-13T02:16:39;5.78;;;3.28;;
53389;SDS011;39288;42.970;1.524;2023-07-13T02:17:39;5.37;;;3.03;;
53389;SDS011;39288;42.970;1.524;2023-07-13T02:18:40;14.32;;;2.85;;
53389;SDS011;39288;42.970;1.524;2023-07-13T02:19:41;3.17;;;2.60;;
53389;SDS011;39288;42.970;1.524;2023-07-13T02:20:41;5.07;;;2.97;;
53389;SDS011;39288;42.970;1.524;2023-07-13T02:21:42;5.07;;;2.90;;
53389;SDS011;39288;42.970;1.524;2023-07-13T02:22:43;3.60;;;2.88;;
53389;SDS011;39288;42.970;1.524;2023-07-13T02:23:43;6.50;;;2.53;;
53389;SDS011;39288;42.970;1.524;2023-07-13T02:24:44;6.20;;;2.70;;
53389;SDS011;39288;42.970;1.524;2023-07-13T02:25:44;6.83;;;3.03;;
53389;SDS011;39288;42.970;1.524;2023-07-13T02:26:45;6.07;;;3.20;;
53389;SDS011;39288;42.970;1.524;2023-07-13T02:27:46;4.83;;;2.60;;
53389;SDS011;39288;42.970;1.524;2023-07-13T02:28:46;7.57;;;2.70;;
53389;SDS011;39288;42.970;1.524;2023-07-13T02:29:47;6.30;;;3.50;;
53389;SDS011;39288;42.970;1.524;2023-07-13T02:30:47;8.97;;;2.80;;
53389;SDS011;39288;42.970;1.524;2023-07-13T02:31:47;4.83;;;2.83;;
53389;SDS011;39288;42.970;1.524;2023-07-13T02:32:48;3.53;;;2.87;;
53389;SDS011;39288;42.970;1.524;2023-07-13T02:33:48;5.50;;;3.10;;
53389;SDS011;39288;42.970;1.524;2023-07-13T02:34:49;6.10;;;2.67;;
53389;SDS011;39288;42.970;1.524;2023-07-13T02:35:49;5.47;;;3.50;;
53389;SDS011;39288;42.970;1.524;2023-07-13T02:36:50;6.77;;;3.07;;
53389;SDS011;39288;42.970;1.524;2023-07-13T02:37:50;8.23;;;3.63;;
53389;SDS011;39288;42.970;1.524;2023-07-13T02:38:51;7.47;;;3.63;;
53389;SDS011;39288;42.970;1.524;2023-07-13T02:39:51;5.73;;;3.40;;
53389;SDS011;39288;42.970;1.524;2023-07-13T02:40:52;7.03;;;3.70;;
53389;SDS011;39288;42.970;1.524;2023-07-13T02:41:52;5.80;;;3.17;;
53389;SDS011;39288;42.970;1.524;2023-07-13T02:42:53;6.45;;;3.42;;
53389;SDS011;39288;42.970;1.524;2023-07-13T02:43:54;7.90;;;3.97;;
53389;SDS011;39288;42.970;1.524;2023-07-13T02:44:56;7.35;;;3.88;;
53389;SDS011;39288;42.970;1.524;2023-07-13T02:45:58;6.67;;;3.93;;
53389;SDS011;39288;42.970;1.524;2023-07-13T02:47:04;6.70;;;2.97;;
53389;SDS011;39288;42.970;1.524;2023-07-13T02:48:04;6.27;;;3.43;;
53389;SDS011;39288;42.970;1.524;2023-07-13T02:49:05;9.10;;;3.47;;
53389;SDS011;39288;42.970;1.524;2023-07-13T02:50:06;7.90;;;3.92;;
53389;SDS011;39288;42.970;1.524;2023-07-13T02:51:07;8.15;;;3.47;;
53389;SDS011;39288;42.970;1.524;2023-07-13T02:52:08;7.40;;;3.50;;
53389;SDS011;39288;42.970;1.524;2023-07-13T02:53:08;6.27;;;3.37;;
53389;SDS011;39288;42.970;1.524;2023-07-13T02:54:09;14.80;;;4.53;;
53389;SDS011;39288;42.970;1.524;2023-07-13T02:55:11;5.68;;;3.60;;
53389;SDS011;39288;42.970;1.524;2023-07-13T02:56:12;7.07;;;3.80;;
53389;SDS011;39288;42.970;1.524;2023-07-13T02:57:12;9.43;;;3.90;;
53389;SDS011;39288;42.970;1.524;2023-07-13T02:58:13;9.10;;;4.30;;
53389;SDS011;39288;42.970;1.524;2023-07-13T02:59:16;7.03;;;4.07;;
53389;SDS011;39288;42.970;1.524;2023-07-13T03:00:17;5.97;;;3.83;;
53389;SDS011;39288;42.970;1.524;2023-07-13T03:01:18;8.03;;;3.53;;
53389;SDS011;39288;42.970;1.524;2023-07-13T03:02:20;9.82;;;3.70;;
53389;SDS011;39288;42.970;1.524;2023-07-13T03:03:21;10.37;;;3.73;;
53389;SDS011;39288;42.970;1.524;2023-07-13T03:04:21;4.00;;;3.43;;
53389;SDS011;39288;42.970;1.524;2023-07-13T03:05:22;7.43;;;3.47;;
53389;SDS011;39288;42.970;1.524;2023-07-13T03:06:23;4.60;;;3.60;;
53389;SDS011;39288;42.970;1.524;2023-07-13T03:07:24;4.10;;;3.25;;
53389;SDS011;39288;42.970;1.524;2023-07-13T03:08:26;7.32;;;3.80;;
53389;SDS011;39288;42.970;1.524;2023-07-13T03:09:26;7.00;;;3.73;;
53389;SDS011;39288;42.970;1.524;2023-07-13T03:10:27;4.53;;;3.27;;
53389;SDS011;39288;42.970;1.524;2023-07-13T03:11:28;7.10;;;3.70;;
53389;SDS011;39288;42.970;1.524;2023-07-13T03:12:28;6.63;;;4.50;;
53389;SDS011;39288;42.970;1.524;2023-07-13T03:13:29;6.30;;;3.42;;
53389;SDS011;39288;42.970;1.524;2023-07-13T03:14:29;7.30;;;3.40;;
53389;SDS011;39288;42.970;1.524;2023-07-13T03:15:30;7.40;;;3.80;;
53389;SDS011;39288;42.970;1.524;2023-07-13T03:16:31;7.43;;;4.07;;
53389;SDS011;39288;42.970;1.524;2023-07-13T03:17:31;7.43;;;4.00;;
53389;SDS011;39288;42.970;1.524;2023-07-13T03:18:32;8.47;;;4.43;;
53389;SDS011;39288;42.970;1.524;2023-07-13T03:19:32;8.77;;;4.20;;
53389;SDS011;39288;42.970;1.524;2023-07-13T03:20:33;6.10;;;4.30;;
53389;SDS011;39288;42.970;1.524;2023-07-13T03:21:34;9.63;;;4.50;;
53389;SDS011;39288;42.970;1.524;2023-07-13T03:22:35;7.67;;;3.50;;
53389;SDS011;39288;42.970;1.524;2023-07-13T03:23:35;9.80;;;3.83;;
53389;SDS011;39288;42.970;1.524;2023-07-13T03:24:36;5.50;;;3.73;;
53389;SDS011;39288;42.970;1.524;2023-07-13T03:26:38;6.85;;;3.85;;
53389;SDS011;39288;42.970;1.524;2023-07-13T03:27:38;9.80;;;3.67;;
53389;SDS011;39288;42.970;1.524;2023-07-13T03:28:39;11.20;;;4.23;;
53389;SDS011;39288;42.970;1.524;2023-07-13T03:29:39;6.57;;;4.50;;
53389;SDS011;39288;42.970;1.524;2023-07-13T03:30:40;10.80;;;4.30;;
53389;SDS011;39288;42.970;1.524;2023-07-13T03:31:41;7.55;;;4.18;;
53389;SDS011;39288;42.970;1.524;2023-07-13T03:32:42;7.43;;;4.97;;
53389;SDS011;39288;42.970;1.524;2023-07-13T03:33:42;8.10;;;4.40;;
53389;SDS011;39288;42.970;1.524;2023-07-13T03:34:43;9.27;;;4.90;;
53389;SDS011;39288;42.970;1.524;2023-07-13T03:35:43;7.13;;;4.70;;
53389;SDS011;39288;42.970;1.524;2023-07-13T03:36:44;6.23;;;4.87;;
53389;SDS011;39288;42.970;1.524;2023-07-13T03:37:44;7.70;;;4.60;;
53389;SDS011;39288;42.970;1.524;2023-07-13T03:38:48;9.47;;;4.40;;
53389;SDS011;39288;42.970;1.524;2023-07-13T03:39:50;9.32;;;4.65;;
53389;SDS011;39288;42.970;1.524;2023-07-13T03:40:50;7.43;;;4.03;;
53389;SDS011;39288;42.970;1.524;2023-07-13T03:41:51;7.70;;;4.43;;
53389;SDS011;39288;42.970;1.524;2023-07-13T03:42:52;7.47;;;4.90;;
53389;SDS011;39288;42.970;1.524;2023-07-13T03:43:52;8.47;;;4.23;;
53389;SDS011;39288;42.970;1.524;2023-07-13T03:44:53;7.83;;;3.90;;
53389;SDS011;39288;42.970;1.524;2023-07-13T03:45:53;8.80;;;4.13;;
53389;SDS011;39288;42.970;1.524;2023-07-13T03:46:54;5.50;;;4.25;;
53389;SDS011;39288;42.970;1.524;2023-07-13T03:47:55;7.77;;;5.23;;
53389;SDS011;39288;42.970;1.524;2023-07-13T03:48:56;6.53;;;4.20;;
53389;SDS011;39288;42.970;1.524;2023-07-13T03:49:56;7.38;;;4.47;;
53389;SDS011;39288;42.970;1.524;2023-07-13T03:50:57;7.03;;;4.57;;
53389;SDS011;39288;42.970;1.524;2023-07-13T03:51:57;7.53;;;4.50;;
53389;SDS011;39288;42.970;1.524;2023-07-13T03:52:58;8.20;;;4.60;;
53389;SDS011;39288;42.970;1.524;2023-07-13T03:53:58;10.23;;;5.00;;
53389;SDS011;39288;42.970;1.524;2023-07-13T03:54:59;5.00;;;4.10;;
53389;SDS011;39288;42.970;1.524;2023-07-13T03:55:59;9.03;;;4.80;;
53389;SDS011;39288;42.970;1.524;2023-07-13T03:57:00;9.27;;;4.67;;
53389;SDS011;39288;42.970;1.524;2023-07-13T03:59:31;7.28;;;4.85;;
53389;SDS011;39288;42.970;1.524;2023-07-13T04:00:32;6.83;;;5.23;;
53389;SDS011;39288;42.970;1.524;2023-07-13T04:01:32;7.00;;;4.63;;
53389;SDS011;39288;42.970;1.524;2023-07-13T04:02:33;6.50;;;4.63;;
53389;SDS011;39288;42.970;1.524;2023-07-13T04:03:34;9.33;;;5.27;;
53389;SDS011;39288;42.970;1.524;2023-07-13T04:04:34;6.78;;;4.43;;
53389;SDS011;39288;42.970;1.524;2023-07-13T04:05:35;6.33;;;4.43;;
53389;SDS011;39288;42.970;1.524;2023-07-13T04:06:36;9.60;;;5.20;;
53389;SDS011;39288;42.970;1.524;2023-07-13T04:07:37;12.07;;;5.43;;
53389;SDS011;39288;42.970;1.524;2023-07-13T04:08:37;7.90;;;4.47;;
53389;SDS011;39288;42.970;1.524;2023-07-13T04:09:38;8.80;;;5.07;;
53389;SDS011;39288;42.970;1.524;2023-07-13T04:10:39;8.80;;;5.67;;
53389;SDS011;39288;42.970;1.524;2023-07-13T04:11:39;10.30;;;5.80;;
53389;SDS011;39288;42.970;1.524;2023-07-13T04:12:40;5.53;;;4.87;;
53389;SDS011;39288;42.970;1.524;2023-07-13T04:13:40;10.33;;;5.37;;
53389;SDS011;39288;42.970;1.524;2023-07-13T04:14:41;7.67;;;4.97;;
53389;SDS011;39288;42.970;1.524;2023-07-13T04:15:41;8.73;;;4.50;;
53389;SDS011;39288;42.970;1.524;2023-07-13T04:16:42;6.87;;;4.13;;
53389;SDS011;39288;42.970;1.524;2023-07-13T04:17:43;6.15;;;4.90;;
53389;SDS011;39288;42.970;1.524;2023-07-13T04:18:44;9.47;;;5.00;;
53389;SDS011;39288;42.970;1.524;2023-07-13T04:19:45;6.55;;;4.28;;
53389;SDS011;39288;42.970;1.524;2023-07-13T04:20:46;6.93;;;5.00;;
53389;SDS011;39288;42.970;1.524;2023-07-13T04:21:47;8.43;;;4.88;;
53389;SDS011;39288;42.970;1.524;2023-07-13T04:22:48;10.80;;;4.83;;
53389;SDS011;39288;42.970;1.524;2023-07-13T04:23:48;8.43;;;4.53;;
53389;SDS011;39288;42.970;1.524;2023-07-13T04:24:49;10.53;;;5.23;;
53389;SDS011;39288;42.970;1.524;2023-07-13T04:25:51;7.03;;;4.20;;
53389;SDS011;39288;42.970;1.524;2023-07-13T04:26:52;6.90;;;4.20;;
53389;SDS011;39288;42.970;1.524;2023-07-13T04:27:53;8.00;;;4.60;;
53389;SDS011;39288;42.970;1.524;2023-07-13T04:28:54;6.55;;;4.72;;
53389;SDS011;39288;42.970;1.524;2023-07-13T04:29:55;9.43;;;5.00;;
53389;SDS011;39288;42.970;1.524;2023-07-13T04:30:55;8.53;;;4.57;;
53389;SDS011;39288;42.970;1.524;2023-07-13T04:31:56;6.90;;;4.43;;
53389;SDS011;39288;42.970;1.524;2023-07-13T04:32:56;5.63;;;4.03;;
53389;SDS011;39288;42.970;1.524;2023-07-13T04:33:57;7.80;;;4.60;;
53389;SDS011;39288;42.970;1.524;2023-07-13T04:34:58;6.47;;;4.83;;
53389;SDS011;39288;42.970;1.524;2023-07-13T04:35:59;9.05;;;5.30;;
53389;SDS011;39288;42.970;1.524;2023-07-13T04:37:02;6.57;;;5.07;;
53389;SDS011;39288;42.970;1.524;2023-07-13T04:38:04;9.88;;;5.10;;
53389;SDS011;39288;42.970;1.524;2023-07-13T04:39:05;9.27;;;4.60;;
53389;SDS011;39288;42.970;1.524;2023-07-13T04:40:07;7.70;;;4.60;;
53389;SDS011;39288;42.970;1.524;2023-07-13T04:41:12;6.80;;;4.35;;
53389;SDS011;39288;42.970;1.524;2023-07-13T04:42:13;7.72;;;4.45;;
53389;SDS011;39288;42.970;1.524;2023-07-13T04:43:13;5.70;;;4.23;;
53389;SDS011;39288;42.970;1.524;2023-07-13T04:44:14;6.30;;;4.00;;
53389;SDS011;39288;42.970;1.524;2023-07-13T04:45:14;7.10;;;3.90;;
53389;SDS011;39288;42.970;1.524;2023-07-13T04:46:16;4.90;;;4.23;;
53389;SDS011;39288;42.970;1.524;2023-07-13T04:47:18;4.97;;;4.10;;
53389;SDS011;39288;42.970;1.524;2023-07-13T04:48:19;7.97;;;3.85;;
53389;SDS011;39288;42.970;1.524;2023-07-13T04:49:20;4.65;;;3.70;;
53389;SDS011;39288;42.970;1.524;2023-07-13T04:50:20;6.37;;;4.00;;
53389;SDS011;39288;42.970;1.524;2023-07-13T04:51:23;7.90;;;3.55;;
53389;SDS011;39288;42.970;1.524;2023-07-13T04:52:23;4.40;;;3.90;;
53389;SDS011;39288;42.970;1.524;2023-07-13T04:53:24;5.90;;;3.77;;
53389;SDS011;39288;42.970;1.524;2023-07-13T04:54:25;4.72;;;3.92;;
53389;SDS011;39288;42.970;1.524;2023-07-13T04:55:26;7.03;;;4.20;;
53389;SDS011;39288;42.970;1.524;2023-07-13T04:56:30;7.35;;;3.78;;
53389;SDS011;39288;42.970;1.524;2023-07-13T04:57:31;4.17;;;3.10;;
53389;SDS011;39288;42.970;1.524;2023-07-13T04:58:31;5.17;;;3.23;;
53389;SDS011;39288;42.970;1.524;2023-07-13T04:59:33;10.38;;;3.50;;
53389;SDS011;39288;42.970;1.524;2023-07-13T05:00:34;3.85;;;3.50;;
53389;SDS011;39288;42.970;1.524;2023-07-13T05:01:35;4.53;;;3.57;;
53389;SDS011;39288;42.970;1.524;2023-07-13T05:02:37;3.23;;;2.93;;
53389;SDS011;39288;42.970;1.524;2023-07-13T05:03:38;5.22;;;3.20;;
53389;SDS011;39288;42.970;1.524;2023-07-13T05:04:38;4.53;;;3.47;;
53389;SDS011;39288;42.970;1.524;2023-07-13T05:05:39;3.53;;;3.00;;
53389;SDS011;39288;42.970;1.524;2023-07-13T05:06:39;2.97;;;2.63;;
53389;SDS011;39288;42.970;1.524;2023-07-13T05:07:40;3.23;;;2.57;;
53389;SDS011;39288;42.970;1.524;2023-07-13T05:08:41;3.92;;;2.85;;
53389;SDS011;39288;42.970;1.524;2023-07-13T05:09:42;3.08;;;2.17;;
53389;SDS011;39288;42.970;1.524;2023-07-13T05:10:43;2.83;;;2.60;;
53389;SDS011;39288;42.970;1.524;2023-07-13T05:11:43;2.83;;;2.60;;
53389;SDS011;39288;42.970;1.524;2023-07-13T05:12:44;3.13;;;2.27;;
53389;SDS011;39288;42.970;1.524;2023-07-13T05:13:45;3.30;;;2.33;;
53389;SDS011;39288;42.970;1.524;2023-07-13T05:14:45;3.73;;;2.37;;
53389;SDS011;39288;42.970;1.524;2023-07-13T05:15:46;3.20;;;2.30;;
53389;SDS011;39288;42.970;1.524;2023-07-13T05:16:47;3.78;;;2.30;;
53389;SDS011;39288;42.970;1.524;2023-07-13T05:17:48;2.80;;;2.03;;
53389;SDS011;39288;42.970;1.524;2023-07-13T05:18:49;2.65;;;2.17;;
53389;SDS011;39288;42.970;1.524;2023-07-13T05:19:49;2.90;;;2.13;;
53389;SDS011;39288;42.970;1.524;2023-07-13T05:20:57;3.20;;;2.67;;
53389;SDS011;39288;42.970;1.524;2023-07-13T05:21:58;4.55;;;2.78;;
53389;SDS011;39288;42.970;1.524;2023-07-13T05:22:59;5.33;;;2.93;;
53389;SDS011;39288;42.970;1.524;2023-07-13T05:23:59;6.20;;;3.63;;
53389;SDS011;39288;42.970;1.524;2023-07-13T05:25:00;13.50;;;4.10;;
53389;SDS011;39288;42.970;1.524;2023-07-13T05:26:04;8.07;;;3.78;;
53389;SDS011;39288;42.970;1.524;2023-07-13T05:27:05;7.60;;;3.70;;
53389;SDS011;39288;42.970;1.524;2023-07-13T05:28:06;6.90;;;3.67;;
53389;SDS011;39288;42.970;1.524;2023-07-13T05:29:06;11.87;;;3.87;;
53389;SDS011;39288;42.970;1.524;2023-07-13T05:30:07;6.27;;;3.90;;
53389;SDS011;39288;42.970;1.524;2023-07-13T05:31:10;6.25;;;4.10;;
53389;SDS011;39288;42.970;1.524;2023-07-13T05:32:11;7.23;;;3.73;;
53389;SDS011;39288;42.970;1.524;2023-07-13T05:33:11;7.20;;;3.83;;
53389;SDS011;39288;42.970;1.524;2023-07-13T05:34:12;8.20;;;3.70;;
53389;SDS011;39288;42.970;1.524;2023-07-13T05:35:12;6.33;;;3.90;;
53389;SDS011;39288;42.970;1.524;2023-07-13T05:36:13;8.27;;;3.77;;
53389;SDS011;39288;42.970;1.524;2023-07-13T05:37:13;10.43;;;3.73;;
53389;SDS011;39288;42.970;1.524;2023-07-13T05:38:14;6.00;;;3.40;;
53389;SDS011;39288;42.970;1.524;2023-07-13T05:39:14;8.40;;;4.20;;
53389;SDS011;39288;42.970;1.524;2023-07-13T05:40:15;8.60;;;3.75;;
53389;SDS011;39288;42.970;1.524;2023-07-13T05:41:16;6.60;;;3.70;;
53389;SDS011;39288;42.970;1.524;2023-07-13T05:42:16;6.30;;;3.77;;
53389;SDS011;39288;42.970;1.524;2023-07-13T05:43:17;5.80;;;3.20;;
53389;SDS011;39288;42.970;1.524;2023-07-13T05:44:17;9.20;;;3.90;;
53389;SDS011;39288;42.970;1.524;2023-07-13T05:46:19;8.40;;;4.00;;
53389;SDS011;39288;42.970;1.524;2023-07-13T05:47:20;8.67;;;4.33;;
53389;SDS011;39288;42.970;1.524;2023-07-13T05:48:20;9.10;;;3.87;;
53389;SDS011;39288;42.970;1.524;2023-07-13T05:49:21;10.23;;;4.40;;
53389;SDS011;39288;42.970;1.524;2023-07-13T05:50:21;9.40;;;3.87;;
53389;SDS011;39288;42.970;1.524;2023-07-13T05:51:22;7.23;;;3.97;;
53389;SDS011;39288;42.970;1.524;2023-07-13T05:52:22;7.07;;;3.73;;
53389;SDS011;39288;42.970;1.524;2023-07-13T05:53:22;7.67;;;3.47;;
53389;SDS011;39288;42.970;1.524;2023-07-13T05:54:23;8.00;;;4.23;;
53389;SDS011;39288;42.970;1.524;2023-07-13T05:55:24;9.77;;;4.20;;
53389;SDS011;39288;42.970;1.524;2023-07-13T05:56:24;6.03;;;3.57;;
53389;SDS011;39288;42.970;1.524;2023-07-13T05:57:26;6.78;;;3.35;;
53389;SDS011;39288;42.970;1.524;2023-07-13T05:58:26;5.53;;;3.67;;
53389;SDS011;39288;42.970;1.524;2023-07-13T05:59:27;7.80;;;3.57;;
53389;SDS011;39288;42.970;1.524;2023-07-13T06:00:27;8.80;;;3.93;;
53389;SDS011;39288;42.970;1.524;2023-07-13T06:01:29;7.17;;;4.00;;
53389;SDS011;39288;42.970;1.524;2023-07-13T06:02:30;6.63;;;3.03;;
53389;SDS011;39288;42.970;1.524;2023-07-13T06:03:30;4.37;;;2.70;;
53389;SDS011;39288;42.970;1.524;2023-07-13T06:04:31;4.03;;;2.53;;
53389;SDS011;39288;42.970;1.524;2023-07-13T06:05:31;6.77;;;2.53;;
53389;SDS011;39288;42.970;1.524;2023-07-13T06:06:33;5.70;;;2.80;;
53389;SDS011;39288;42.970;1.524;2023-07-13T06:07:34;5.80;;;2.40;;
53389;SDS011;39288;42.970;1.524;2023-07-13T06:08:34;3.07;;;2.00;;
53389;SDS011;39288;42.970;1.524;2023-07-13T06:09:35;6.27;;;3.07;;
53389;SDS011;39288;42.970;1.524;2023-07-13T06:10:35;9.57;;;2.97;;
53389;SDS011;39288;42.970;1.524;2023-07-13T06:11:36;4.63;;;2.50;;
53389;SDS011;39288;42.970;1.524;2023-07-13T06:12:37;7.43;;;3.10;;
53389;SDS011;39288;42.970;1.524;2023-07-13T06:13:37;4.57;;;2.30;;
53389;SDS011;39288;42.970;1.524;2023-07-13T06:14:38;3.63;;;2.13;;